Stanton, Texas
Current Conditions -  °F | °C
As of 1:35 AM on Wednesday 22 Oct 2014 (Local Time) from KBPG Reporting Station
Scattered Clouds Scattered Clouds  
Wind Chill: 64°   Ceiling: Unl
Heat Index: 64°   Visibility: 10mi
Dew Point: 53°   Wind: 3mph
Humidity: 66%   Direction: 160°SSE
Pressure: 30.09"   Gusts: NA
Location:  32.13°N, 101.79°W
Report Text: KBPG 220635Z AUTO 16003KT 10SM SCT120 18/12 A3009 RMK AO2 T01800115
Loading
Personal Weather Stations






























Interactive Weather Map
Tropical Storm Tracking
New forecast layout! Learn more

10-Day Weather Forecast

Advertisements
Track Severe Weather on mobile